KSEG

Details ICAO KSEG
Name PENN VALLEY
Region United States
Timezone America/New_York (UTC-5.0)
Plans Departing 1
Arriving 10
Stats Elevation 450 ft / 137 m (AMSL)
Location 40.820521° -76.863788°
Runways 1
Magnetic Variation 11.358° W
Sunrise 2017-12-11 12:23:18 UTC / 2017-12-11 07:23:18 Local
Sunset 2017-12-11 21:41:13 UTC / 2017-12-11 16:41:13 Local
Advertisement - Login to hide

Runways

ID Width Length Bearing (true) Bearing (mag) Surface Threshold Offset Overrun Length
17 75 ft / 23 m 3,804 ft / 1,159 m 158.86° 170.22° Asphalt 0 ft / 0 m 0 ft / 0 m
35 75 ft / 23 m 3,804 ft / 1,159 m 338.87° 350.23° Asphalt 0 ft / 0 m 0 ft / 0 m

Map

Weather


0- 5 10 15 20 25 30 35+ Temperature / ° C

Clouds and Precipitation
Forecast for 2017-12-12 06:00 UTC. Updated an hour ago

Ground ~20,000 ft ~40,000 ft Winds

METAR

KSEG 120353Z AUTO 17009KT 10SM CLR 03/M03 A2983 RMK AO2 SLP104 T00281033

TAF

Not found

Frequencies

Recorded 119.27 MHz ASOS
Approach 118.25 MHz HARRISBURG APP/DEP
Unicom 122.70 MHz CTAF/UNICOM
Warning: Do not use this data for real-world aviation or navigation. No guarantee of current accuracy is given.